Terminal Aerodrome Forecast
Issued by NWS

Home | Current Version | Previous Version | Graphics & Text | Print | Product List | Glossary On
Versions: 1 2 3 4 5 6 7 8 9 10 11 12 13 14 15
830
FTUS43 KFGF 230520
TAFBJI
TAF
KBJI 230520Z 2306/2406 16005KT P6SM FEW250
     FM231300 16009KT P6SM BKN250
     FM240000 18013KT P6SM BKN070
     FM240500 23015KT P6SM BKN015=

USA.gov is the U.S. government's official web portal to all federal, state and local government web resources and services.